TimeCDT,TemperatureF,Dew PointF,Humidity,Sea Level PressureIn,VisibilityMPH,Wind Direction,Wind SpeedMPH,Gust SpeedMPH,PrecipitationIn,Events,Conditions,WindDirDegrees,DateUTC
12:15 AM,51.3,45.9,82,30.20,10.0,Calm,Calm,-,N/A,,Clear,0,2013-04-27 05:15:00
12:35 AM,49.8,45.3,84,30.21,10.0,Calm,Calm,-,N/A,,Clear,0,2013-04-27 05:35:00
12:55 AM,49.3,45.3,86,30.21,10.0,Calm,Calm,-,N/A,,Clear,0,2013-04-27 05:55:00
1:15 AM,48.6,45.3,89,30.20,10.0,Calm,Calm,-,N/A,,Clear,0,2013-04-27 06:15:00
1:35 AM,48.9,45.5,88,30.19,10.0,SE,5.8,-,N/A,,Clear,140,2013-04-27 06:35:00
1:55 AM,48.7,45.5,89,30.19,10.0,Calm,Calm,-,N/A,,Clear,0,2013-04-27 06:55:00
2:15 AM,47.7,44.8,90,30.19,7.0,SSE,4.6,-,N/A,,Clear,150,2013-04-27 07:15:00
2:35 AM,46.6,44.2,92,30.18,7.0,SSE,4.6,-,N/A,,Clear,150,2013-04-27 07:35:00
2:55 AM,46.6,44.6,93,30.17,7.0,SSE,4.6,-,N/A,,Clear,160,2013-04-27 07:55:00
3:15 AM,45.9,43.9,93,30.16,5.0,SSE,4.6,-,N/A,,Clear,150,2013-04-27 08:15:00
3:35 AM,45.7,43.9,93,30.16,5.0,Calm,Calm,-,N/A,,Clear,0,2013-04-27 08:35:00
3:55 AM,45.0,43.2,93,30.15,5.0,SSE,3.5,-,N/A,,Clear,160,2013-04-27 08:55:00
4:15 AM,44.6,43.0,94,30.15,5.0,Calm,Calm,-,N/A,,Clear,0,2013-04-27 09:15:00
4:35 AM,45.7,44.1,94,30.15,5.0,Calm,Calm,-,N/A,,Clear,0,2013-04-27 09:35:00
4:55 AM,45.7,44.1,94,30.14,5.0,Calm,Calm,-,N/A,,Clear,0,2013-04-27 09:55:00
5:15 AM,45.5,43.9,94,30.13,4.0,Calm,Calm,-,N/A,,Clear,0,2013-04-27 10:15:00
6:35 AM,43.7,42.6,96,30.13,0.5,South,3.5,-,N/A,Fog,Fog,190,2013-04-27 11:35:00
6:55 AM,43.7,42.8,97,30.14,0.5,South,3.5,-,N/A,Fog,Fog,180,2013-04-27 11:55:00
7:15 AM,43.9,42.8,96,30.15,0.5,South,6.9,-,N/A,Fog,Fog,190,2013-04-27 12:15:00
7:35 AM,44.2,43.2,96,30.15,0.2,South,4.6,-,N/A,Fog,Fog,170,2013-04-27 12:35:00
7:55 AM,44.6,43.7,97,30.16,0.2,South,4.6,-,N/A,Fog,Fog,180,2013-04-27 12:55:00
8:15 AM,46.0,45.0,96,30.16,0.2,South,8.1,-,N/A,Fog,Fog,170,2013-04-27 13:15:00
8:35 AM,47.3,46.2,96,30.16,0.5,South,5.8,-,N/A,Fog,Fog,190,2013-04-27 13:35:00
8:55 AM,47.8,46.8,96,30.15,1.5,South,9.2,-,N/A,,Overcast,180,2013-04-27 13:55:00
9:15 AM,48.4,47.3,96,30.15,1.5,South,9.2,-,N/A,,Overcast,180,2013-04-27 14:15:00
9:35 AM,48.9,47.5,95,30.15,2.0,South,8.1,-,N/A,,Overcast,190,2013-04-27 14:35:00
9:55 AM,49.3,48.2,96,30.14,2.5,South,5.8,-,N/A,,Overcast,180,2013-04-27 14:55:00
10:15 AM,50.2,48.4,94,30.14,3.0,South,6.9,-,N/A,,Overcast,180,2013-04-27 15:15:00
10:35 AM,50.5,48.2,92,30.14,4.0,South,6.9,-,N/A,,Overcast,190,2013-04-27 15:35:00
10:55 AM,51.1,48.2,90,30.14,5.0,South,8.1,-,N/A,,Overcast,190,2013-04-27 15:55:00
11:15 AM,52.0,48.2,87,30.14,5.0,South,6.9,-,N/A,,Overcast,180,2013-04-27 16:15:00
11:35 AM,52.7,48.2,85,30.14,5.0,South,8.1,-,N/A,,Haze,170,2013-04-27 16:35:00
11:55 AM,53.6,48.4,82,30.14,4.0,South,9.2,-,N/A,,Haze,170,2013-04-27 16:55:00
12:15 PM,54.3,48.6,81,30.14,5.0,South,8.1,-,N/A,,Haze,170,2013-04-27 17:15:00
12:35 PM,55.4,48.7,78,30.13,5.0,South,9.2,-,N/A,,Haze,170,2013-04-27 17:35:00
12:55 PM,57.0,48.9,74,30.12,5.0,South,5.8,-,N/A,,Haze,170,2013-04-27 17:55:00
1:15 PM,58.6,48.9,70,30.11,7.0,South,8.1,-,N/A,,Mostly Cloudy,170,2013-04-27 18:15:00
1:35 PM,59.9,48.9,67,30.10,7.0,SSE,8.1,-,N/A,,Clear,150,2013-04-27 18:35:00
1:55 PM,62.6,49.5,62,30.09,7.0,South,5.8,-,N/A,,Clear,180,2013-04-27 18:55:00
2:15 PM,64.2,49.1,58,30.07,10.0,SSE,5.8,-,N/A,,Clear,150,2013-04-27 19:15:00
2:35 PM,65.8,48.6,54,30.06,10.0,South,6.9,-,N/A,,Clear,170,2013-04-27 19:35:00
2:55 PM,67.1,46.9,48,30.06,10.0,SSW,9.2,-,N/A,,Clear,210,2013-04-27 19:55:00
3:15 PM,68.5,46.9,46,30.05,10.0,South,8.1,-,N/A,,Clear,170,2013-04-27 20:15:00
3:35 PM,69.3,47.1,45,30.04,10.0,SSE,6.9,-,N/A,,Clear,150,2013-04-27 20:35:00
3:55 PM,69.8,45.3,41,30.03,10.0,South,6.9,-,N/A,,Clear,190,2013-04-27 20:55:00
4:15 PM,70.9,44.2,38,30.01,10.0,SSW,3.5,-,N/A,,Clear,200,2013-04-27 21:15:00
4:35 PM,70.9,42.3,36,30.01,10.0,South,4.6,-,N/A,,Clear,190,2013-04-27 21:35:00
4:55 PM,71.4,41.4,34,29.99,10.0,SSW,4.6,-,N/A,,Clear,200,2013-04-27 21:55:00
5:15 PM,72.1,35.1,26,29.99,10.0,Calm,Calm,-,N/A,,Clear,0,2013-04-27 22:15:00
5:35 PM,71.8,38.8,30,29.98,10.0,SSW,4.6,-,N/A,,Clear,210,2013-04-27 22:35:00
5:55 PM,71.4,43.7,37,29.97,10.0,ESE,9.2,-,N/A,,Clear,120,2013-04-27 22:55:00
6:15 PM,71.1,44.6,39,29.96,10.0,SE,12.7,-,N/A,,Clear,130,2013-04-27 23:15:00
6:35 PM,70.3,45.0,40,29.96,10.0,SE,10.4,-,N/A,,Clear,140,2013-04-27 23:35:00
6:55 PM,69.4,45.1,42,29.96,10.0,SE,12.7,-,N/A,,Clear,130,2013-04-27 23:55:00
7:15 PM,68.5,45.0,43,29.95,10.0,SE,15.0,-,N/A,,Clear,130,2013-04-28 00:15:00
7:35 PM,67.5,45.5,45,29.94,10.0,SE,10.4,-,N/A,,Clear,130,2013-04-28 00:35:00
7:55 PM,66.2,45.5,47,29.94,10.0,SE,11.5,-,N/A,,Clear,140,2013-04-28 00:55:00
8:15 PM,64.9,45.7,50,29.94,10.0,SSE,12.7,-,N/A,,Clear,150,2013-04-28 01:15:00
8:35 PM,63.9,45.5,51,29.94,10.0,SSE,12.7,-,N/A,,Clear,150,2013-04-28 01:35:00
8:55 PM,62.6,45.7,54,29.94,10.0,SSE,11.5,-,N/A,,Clear,150,2013-04-28 01:55:00
9:15 PM,61.2,45.9,57,29.95,10.0,SSE,11.5,-,N/A,,Clear,150,2013-04-28 02:15:00
9:35 PM,60.1,46.0,60,29.95,10.0,SSE,11.5,-,N/A,,Clear,150,2013-04-28 02:35:00
9:55 PM,59.7,46.2,61,29.95,10.0,SSE,13.8,-,N/A,,Clear,150,2013-04-28 02:55:00
10:15 PM,59.0,46.0,62,29.96,10.0,SSE,11.5,-,N/A,,Clear,150,2013-04-28 03:15:00
10:35 PM,58.5,46.0,63,29.95,10.0,SSE,12.7,-,N/A,,Clear,150,2013-04-28 03:35:00
10:55 PM,57.6,46.0,65,29.96,10.0,SSE,10.4,-,N/A,,Clear,150,2013-04-28 03:55:00
11:15 PM,57.2,46.0,66,29.94,10.0,SSE,9.2,-,N/A,,Clear,150,2013-04-28 04:15:00
11:35 PM,56.8,46.2,68,29.94,10.0,SSE,9.2,-,N/A,,Clear,160,2013-04-28 04:35:00
11:55 PM,56.7,46.2,68,29.94,10.0,SSE,11.5,-,N/A,,Clear,160,2013-04-28 04:55:00